sensor_id;sensor_type;location;lat;lon;timestamp;P1;durP1;ratioP1;P2;durP2;ratioP2
32826;SDS011;51059;42.058;27.986;2024-03-22T00:01:48;7.63;;;6.83;;
32826;SDS011;51059;42.058;27.986;2024-03-22T00:04:15;7.30;;;6.70;;
32826;SDS011;51059;42.058;27.986;2024-03-22T00:06:42;7.20;;;6.50;;
32826;SDS011;51059;42.058;27.986;2024-03-22T00:09:09;7.33;;;6.60;;
32826;SDS011;51059;42.058;27.986;2024-03-22T00:11:36;7.40;;;6.70;;
32826;SDS011;51059;42.058;27.986;2024-03-22T00:14:04;8.07;;;7.27;;
32826;SDS011;51059;42.058;27.986;2024-03-22T00:16:30;7.17;;;6.57;;
32826;SDS011;51059;42.058;27.986;2024-03-22T00:18:56;7.23;;;6.50;;
32826;SDS011;51059;42.058;27.986;2024-03-22T00:21:22;7.50;;;6.80;;
32826;SDS011;51059;42.058;27.986;2024-03-22T00:23:48;8.00;;;7.20;;
32826;SDS011;51059;42.058;27.986;2024-03-22T00:26:15;8.33;;;7.53;;
32826;SDS011;51059;42.058;27.986;2024-03-22T00:28:41;7.93;;;7.23;;
32826;SDS011;51059;42.058;27.986;2024-03-22T00:31:08;8.53;;;7.83;;
32826;SDS011;51059;42.058;27.986;2024-03-22T00:33:34;8.80;;;8.00;;
32826;SDS011;51059;42.058;27.986;2024-03-22T00:36:00;8.77;;;7.87;;
32826;SDS011;51059;42.058;27.986;2024-03-22T00:38:26;8.67;;;7.87;;
32826;SDS011;51059;42.058;27.986;2024-03-22T00:40:52;9.23;;;8.43;;
32826;SDS011;51059;42.058;27.986;2024-03-22T00:43:18;9.40;;;8.40;;
32826;SDS011;51059;42.058;27.986;2024-03-22T00:45:44;9.17;;;8.27;;
32826;SDS011;51059;42.058;27.986;2024-03-22T00:48:11;9.50;;;8.60;;
32826;SDS011;51059;42.058;27.986;2024-03-22T00:50:37;9.63;;;8.73;;
32826;SDS011;51059;42.058;27.986;2024-03-22T00:53:03;10.20;;;9.20;;
32826;SDS011;51059;42.058;27.986;2024-03-22T00:55:30;10.40;;;9.33;;
32826;SDS011;51059;42.058;27.986;2024-03-22T00:57:58;10.03;;;9.00;;
32826;SDS011;51059;42.058;27.986;2024-03-22T01:00:23;10.70;;;9.60;;
32826;SDS011;51059;42.058;27.986;2024-03-22T01:02:50;13.03;;;9.40;;
32826;SDS011;51059;42.058;27.986;2024-03-22T01:05:17;10.47;;;9.47;;
32826;SDS011;51059;42.058;27.986;2024-03-22T01:07:43;11.10;;;10.10;;
32826;SDS011;51059;42.058;27.986;2024-03-22T01:10:10;11.63;;;10.57;;
32826;SDS011;51059;42.058;27.986;2024-03-22T01:12:36;12.63;;;11.43;;
32826;SDS011;51059;42.058;27.986;2024-03-22T01:15:03;13.27;;;12.00;;
32826;SDS011;51059;42.058;27.986;2024-03-22T01:17:31;11.03;;;10.13;;
32826;SDS011;51059;42.058;27.986;2024-03-22T01:19:57;10.53;;;9.53;;
32826;SDS011;51059;42.058;27.986;2024-03-22T01:22:23;10.47;;;9.37;;
32826;SDS011;51059;42.058;27.986;2024-03-22T01:24:48;10.70;;;7.70;;
32826;SDS011;51059;42.058;27.986;2024-03-22T01:27:14;9.37;;;8.37;;
32826;SDS011;51059;42.058;27.986;2024-03-22T01:29:41;9.60;;;8.67;;
32826;SDS011;51059;42.058;27.986;2024-03-22T01:32:07;10.20;;;9.10;;
32826;SDS011;51059;42.058;27.986;2024-03-22T01:34:33;9.80;;;8.90;;
32826;SDS011;51059;42.058;27.986;2024-03-22T01:37:00;10.37;;;8.60;;
32826;SDS011;51059;42.058;27.986;2024-03-22T01:39:30;8.97;;;8.03;;
32826;SDS011;51059;42.058;27.986;2024-03-22T01:41:55;8.73;;;7.90;;
32826;SDS011;51059;42.058;27.986;2024-03-22T01:44:26;9.23;;;8.00;;
32826;SDS011;51059;42.058;27.986;2024-03-22T01:46:57;10.73;;;7.70;;
32826;SDS011;51059;42.058;27.986;2024-03-22T01:49:24;7.23;;;6.53;;
32826;SDS011;51059;42.058;27.986;2024-03-22T01:51:51;7.57;;;6.80;;
32826;SDS011;51059;42.058;27.986;2024-03-22T01:54:19;7.83;;;7.00;;
32826;SDS011;51059;42.058;27.986;2024-03-22T01:56:46;9.37;;;7.90;;
32826;SDS011;51059;42.058;27.986;2024-03-22T01:59:13;9.47;;;8.20;;
32826;SDS011;51059;42.058;27.986;2024-03-22T02:01:40;10.33;;;8.67;;
32826;SDS011;51059;42.058;27.986;2024-03-22T02:04:06;10.00;;;8.40;;
32826;SDS011;51059;42.058;27.986;2024-03-22T02:06:33;9.03;;;8.13;;
32826;SDS011;51059;42.058;27.986;2024-03-22T02:08:59;9.47;;;8.03;;
32826;SDS011;51059;42.058;27.986;2024-03-22T02:11:25;9.03;;;8.13;;
32826;SDS011;51059;42.058;27.986;2024-03-22T02:13:52;9.40;;;8.50;;
32826;SDS011;51059;42.058;27.986;2024-03-22T02:16:18;9.23;;;8.23;;
32826;SDS011;51059;42.058;27.986;2024-03-22T02:18:45;9.77;;;8.87;;
32826;SDS011;51059;42.058;27.986;2024-03-22T02:21:11;8.27;;;7.37;;
32826;SDS011;51059;42.058;27.986;2024-03-22T02:23:38;8.80;;;7.90;;
32826;SDS011;51059;42.058;27.986;2024-03-22T02:26:05;9.13;;;8.33;;
32826;SDS011;51059;42.058;27.986;2024-03-22T02:28:33;10.13;;;9.23;;
32826;SDS011;51059;42.058;27.986;2024-03-22T02:31:03;10.07;;;9.10;;
32826;SDS011;51059;42.058;27.986;2024-03-22T02:33:29;10.93;;;9.40;;
32826;SDS011;51059;42.058;27.986;2024-03-22T02:35:55;10.33;;;9.30;;
32826;SDS011;51059;42.058;27.986;2024-03-22T02:38:22;10.10;;;9.20;;
32826;SDS011;51059;42.058;27.986;2024-03-22T02:40:49;11.20;;;10.10;;
32826;SDS011;51059;42.058;27.986;2024-03-22T02:43:15;10.67;;;9.67;;
32826;SDS011;51059;42.058;27.986;2024-03-22T02:45:44;10.73;;;9.73;;
32826;SDS011;51059;42.058;27.986;2024-03-22T02:48:11;11.57;;;10.33;;
32826;SDS011;51059;42.058;27.986;2024-03-22T02:50:37;13.50;;;9.60;;
32826;SDS011;51059;42.058;27.986;2024-03-22T02:53:03;11.27;;;9.03;;
32826;SDS011;51059;42.058;27.986;2024-03-22T02:55:30;9.90;;;8.63;;
32826;SDS011;51059;42.058;27.986;2024-03-22T02:57:57;15.20;;;7.60;;
32826;SDS011;51059;42.058;27.986;2024-03-22T03:00:23;8.90;;;6.47;;
32826;SDS011;51059;42.058;27.986;2024-03-22T03:02:49;7.03;;;4.77;;
32826;SDS011;51059;42.058;27.986;2024-03-22T03:05:15;7.53;;;5.87;;
32826;SDS011;51059;42.058;27.986;2024-03-22T03:07:42;9.43;;;5.77;;
32826;SDS011;51059;42.058;27.986;2024-03-22T03:10:08;6.37;;;5.30;;
32826;SDS011;51059;42.058;27.986;2024-03-22T03:12:35;5.43;;;3.60;;
32826;SDS011;51059;42.058;27.986;2024-03-22T03:15:01;10.20;;;3.90;;
32826;SDS011;51059;42.058;27.986;2024-03-22T03:17:28;7.87;;;6.00;;
32826;SDS011;51059;42.058;27.986;2024-03-22T03:19:54;6.93;;;6.23;;
32826;SDS011;51059;42.058;27.986;2024-03-22T03:22:20;10.10;;;6.77;;
32826;SDS011;51059;42.058;27.986;2024-03-22T03:24:45;11.40;;;7.30;;
32826;SDS011;51059;42.058;27.986;2024-03-22T03:27:11;8.40;;;7.50;;
32826;SDS011;51059;42.058;27.986;2024-03-22T03:29:37;10.97;;;8.53;;
32826;SDS011;51059;42.058;27.986;2024-03-22T03:32:03;10.23;;;9.07;;
32826;SDS011;51059;42.058;27.986;2024-03-22T03:34:29;11.00;;;9.47;;
32826;SDS011;51059;42.058;27.986;2024-03-22T03:36:55;12.63;;;9.57;;
32826;SDS011;51059;42.058;27.986;2024-03-22T03:39:21;11.80;;;10.47;;
32826;SDS011;51059;42.058;27.986;2024-03-22T03:41:47;18.37;;;13.07;;
32826;SDS011;51059;42.058;27.986;2024-03-22T03:44:13;21.40;;;14.13;;
32826;SDS011;51059;42.058;27.986;2024-03-22T03:46:39;18.87;;;14.50;;
32826;SDS011;51059;42.058;27.986;2024-03-22T03:49:05;19.13;;;12.20;;
32826;SDS011;51059;42.058;27.986;2024-03-22T03:51:31;14.70;;;8.43;;
32826;SDS011;51059;42.058;27.986;2024-03-22T03:53:57;13.77;;;8.10;;
32826;SDS011;51059;42.058;27.986;2024-03-22T03:56:23;11.20;;;6.37;;
32826;SDS011;51059;42.058;27.986;2024-03-22T03:58:49;8.53;;;5.07;;
32826;SDS011;51059;42.058;27.986;2024-03-22T04:01:15;7.43;;;5.03;;
32826;SDS011;51059;42.058;27.986;2024-03-22T04:03:43;11.93;;;5.43;;
32826;SDS011;51059;42.058;27.986;2024-03-22T04:06:09;9.00;;;5.30;;
32826;SDS011;51059;42.058;27.986;2024-03-22T04:08:35;9.10;;;5.00;;
32826;SDS011;51059;42.058;27.986;2024-03-22T04:11:01;8.13;;;4.80;;
32826;SDS011;51059;42.058;27.986;2024-03-22T04:13:28;6.70;;;4.23;;
32826;SDS011;51059;42.058;27.986;2024-03-22T04:15:54;7.43;;;5.20;;
32826;SDS011;51059;42.058;27.986;2024-03-22T04:18:20;5.33;;;4.77;;
32826;SDS011;51059;42.058;27.986;2024-03-22T04:20:54;10.57;;;5.63;;
32826;SDS011;51059;42.058;27.986;2024-03-22T04:23:21;6.03;;;5.07;;
32826;SDS011;51059;42.058;27.986;2024-03-22T04:26:02;6.53;;;5.03;;
32826;SDS011;51059;42.058;27.986;2024-03-22T04:28:28;6.00;;;4.63;;
32826;SDS011;51059;42.058;27.986;2024-03-22T04:31:01;6.73;;;5.03;;
32826;SDS011;51059;42.058;27.986;2024-03-22T04:33:28;9.67;;;5.83;;
32826;SDS011;51059;42.058;27.986;2024-03-22T04:35:56;6.30;;;5.37;;
32826;SDS011;51059;42.058;27.986;2024-03-22T04:38:23;6.60;;;4.93;;
32826;SDS011;51059;42.058;27.986;2024-03-22T04:40:50;6.47;;;5.77;;
32826;SDS011;51059;42.058;27.986;2024-03-22T04:43:16;4.63;;;3.97;;
32826;SDS011;51059;42.058;27.986;2024-03-22T04:45:42;4.77;;;4.17;;
32826;SDS011;51059;42.058;27.986;2024-03-22T04:48:09;7.03;;;4.37;;
32826;SDS011;51059;42.058;27.986;2024-03-22T04:50:36;5.73;;;4.20;;
32826;SDS011;51059;42.058;27.986;2024-03-22T04:53:02;7.90;;;5.20;;
32826;SDS011;51059;42.058;27.986;2024-03-22T04:55:28;9.20;;;5.93;;
32826;SDS011;51059;42.058;27.986;2024-03-22T04:57:54;7.63;;;6.33;;
32826;SDS011;51059;42.058;27.986;2024-03-22T05:00:20;8.37;;;6.30;;
32826;SDS011;51059;42.058;27.986;2024-03-22T05:02:47;12.67;;;11.37;;
32826;SDS011;51059;42.058;27.986;2024-03-22T05:05:13;16.53;;;12.73;;
32826;SDS011;51059;42.058;27.986;2024-03-22T05:07:39;15.13;;;13.57;;
32826;SDS011;51059;42.058;27.986;2024-03-22T05:10:05;15.87;;;14.17;;
32826;SDS011;51059;42.058;27.986;2024-03-22T05:12:31;16.00;;;13.93;;
32826;SDS011;51059;42.058;27.986;2024-03-22T05:14:57;16.50;;;14.23;;
32826;SDS011;51059;42.058;27.986;2024-03-22T05:17:23;16.50;;;14.80;;
32826;SDS011;51059;42.058;27.986;2024-03-22T05:19:49;13.97;;;12.57;;
32826;SDS011;51059;42.058;27.986;2024-03-22T05:22:15;15.10;;;12.77;;
32826;SDS011;51059;42.058;27.986;2024-03-22T05:24:41;14.70;;;12.50;;
32826;SDS011;51059;42.058;27.986;2024-03-22T05:27:07;16.67;;;13.30;;
32826;SDS011;51059;42.058;27.986;2024-03-22T05:29:34;16.10;;;13.90;;
32826;SDS011;51059;42.058;27.986;2024-03-22T05:34:31;15.73;;;13.30;;
32826;SDS011;51059;42.058;27.986;2024-03-22T05:36:57;16.60;;;13.77;;
32826;SDS011;51059;42.058;27.986;2024-03-22T05:39:24;16.40;;;13.40;;
32826;SDS011;51059;42.058;27.986;2024-03-22T05:41:50;15.93;;;13.40;;
32826;SDS011;51059;42.058;27.986;2024-03-22T05:44:16;17.70;;;13.40;;
32826;SDS011;51059;42.058;27.986;2024-03-22T05:46:41;15.57;;;13.30;;
32826;SDS011;51059;42.058;27.986;2024-03-22T05:49:07;14.50;;;12.57;;
32826;SDS011;51059;42.058;27.986;2024-03-22T05:51:34;15.07;;;11.73;;
32826;SDS011;51059;42.058;27.986;2024-03-22T05:54:00;13.47;;;11.30;;
32826;SDS011;51059;42.058;27.986;2024-03-22T05:56:26;13.03;;;11.60;;
32826;SDS011;51059;42.058;27.986;2024-03-22T05:58:53;14.53;;;11.67;;
32826;SDS011;51059;42.058;27.986;2024-03-22T06:01:19;12.70;;;11.40;;
32826;SDS011;51059;42.058;27.986;2024-03-22T06:03:45;12.00;;;10.63;;
32826;SDS011;51059;42.058;27.986;2024-03-22T06:06:11;13.90;;;10.83;;
32826;SDS011;51059;42.058;27.986;2024-03-22T06:08:38;14.20;;;10.37;;
32826;SDS011;51059;42.058;27.986;2024-03-22T06:11:12;13.90;;;10.20;;
32826;SDS011;51059;42.058;27.986;2024-03-22T06:13:43;10.67;;;9.57;;
32826;SDS011;51059;42.058;27.986;2024-03-22T06:16:09;11.10;;;10.00;;
32826;SDS011;51059;42.058;27.986;2024-03-22T06:18:36;13.37;;;10.00;;
32826;SDS011;51059;42.058;27.986;2024-03-22T06:21:02;11.87;;;10.17;;
32826;SDS011;51059;42.058;27.986;2024-03-22T06:23:28;16.17;;;10.40;;
32826;SDS011;51059;42.058;27.986;2024-03-22T06:25:54;12.70;;;9.87;;
32826;SDS011;51059;42.058;27.986;2024-03-22T06:28:21;11.37;;;9.87;;
32826;SDS011;51059;42.058;27.986;2024-03-22T06:30:48;11.80;;;9.23;;
32826;SDS011;51059;42.058;27.986;2024-03-22T06:33:15;11.00;;;9.77;;
32826;SDS011;51059;42.058;27.986;2024-03-22T06:35:41;14.83;;;10.27;;
32826;SDS011;51059;42.058;27.986;2024-03-22T06:38:07;12.70;;;9.20;;
32826;SDS011;51059;42.058;27.986;2024-03-22T06:40:33;13.47;;;8.87;;
32826;SDS011;51059;42.058;27.986;2024-03-22T06:43:00;12.30;;;9.13;;
32826;SDS011;51059;42.058;27.986;2024-03-22T06:45:26;10.23;;;8.47;;
32826;SDS011;51059;42.058;27.986;2024-03-22T06:47:52;11.43;;;9.10;;
32826;SDS011;51059;42.058;27.986;2024-03-22T06:50:18;12.27;;;9.17;;
32826;SDS011;51059;42.058;27.986;2024-03-22T06:52:44;12.40;;;9.30;;
32826;SDS011;51059;42.058;27.986;2024-03-22T06:55:10;12.13;;;9.27;;
32826;SDS011;51059;42.058;27.986;2024-03-22T06:57:37;13.80;;;9.03;;
32826;SDS011;51059;42.058;27.986;2024-03-22T07:00:04;12.83;;;9.40;;
32826;SDS011;51059;42.058;27.986;2024-03-22T07:02:31;11.37;;;8.10;;
32826;SDS011;51059;42.058;27.986;2024-03-22T07:04:57;12.00;;;8.27;;
32826;SDS011;51059;42.058;27.986;2024-03-22T07:07:23;10.40;;;8.43;;
32826;SDS011;51059;42.058;27.986;2024-03-22T07:09:49;12.77;;;8.40;;
32826;SDS011;51059;42.058;27.986;2024-03-22T07:12:15;10.47;;;8.50;;
32826;SDS011;51059;42.058;27.986;2024-03-22T07:14:40;10.30;;;8.63;;
32826;SDS011;51059;42.058;27.986;2024-03-22T07:17:07;8.17;;;7.30;;
32826;SDS011;51059;42.058;27.986;2024-03-22T07:19:33;10.57;;;8.93;;
32826;SDS011;51059;42.058;27.986;2024-03-22T07:22:00;10.63;;;8.20;;
32826;SDS011;51059;42.058;27.986;2024-03-22T07:24:25;12.93;;;8.70;;
32826;SDS011;51059;42.058;27.986;2024-03-22T07:26:51;11.67;;;8.30;;
32826;SDS011;51059;42.058;27.986;2024-03-22T07:29:17;10.03;;;8.40;;
32826;SDS011;51059;42.058;27.986;2024-03-22T07:31:45;10.70;;;8.63;;
32826;SDS011;51059;42.058;27.986;2024-03-22T07:34:11;10.57;;;8.07;;
32826;SDS011;51059;42.058;27.986;2024-03-22T07:36:37;9.93;;;7.83;;
32826;SDS011;51059;42.058;27.986;2024-03-22T07:39:05;11.27;;;8.63;;
32826;SDS011;51059;42.058;27.986;2024-03-22T07:41:34;16.73;;;9.40;;
32826;SDS011;51059;42.058;27.986;2024-03-22T07:44:00;18.07;;;9.57;;
32826;SDS011;51059;42.058;27.986;2024-03-22T07:46:28;12.20;;;9.63;;
32826;SDS011;51059;42.058;27.986;2024-03-22T07:48:55;10.57;;;9.33;;
32826;SDS011;51059;42.058;27.986;2024-03-22T07:51:24;12.60;;;9.50;;
32826;SDS011;51059;42.058;27.986;2024-03-22T07:53:50;9.83;;;8.80;;
32826;SDS011;51059;42.058;27.986;2024-03-22T07:56:17;11.40;;;9.07;;
32826;SDS011;51059;42.058;27.986;2024-03-22T07:58:43;10.83;;;8.93;;
32826;SDS011;51059;42.058;27.986;2024-03-22T08:01:09;10.87;;;8.93;;
32826;SDS011;51059;42.058;27.986;2024-03-22T08:03:37;10.77;;;8.70;;
32826;SDS011;51059;42.058;27.986;2024-03-22T08:06:03;9.40;;;8.40;;
32826;SDS011;51059;42.058;27.986;2024-03-22T08:08:29;11.87;;;9.17;;
32826;SDS011;51059;42.058;27.986;2024-03-22T08:10:55;12.57;;;8.17;;
32826;SDS011;51059;42.058;27.986;2024-03-22T08:13:23;10.80;;;8.07;;
32826;SDS011;51059;42.058;27.986;2024-03-22T08:15:49;13.23;;;7.93;;
32826;SDS011;51059;42.058;27.986;2024-03-22T08:18:15;10.73;;;8.07;;
32826;SDS011;51059;42.058;27.986;2024-03-22T08:20:41;7.50;;;6.70;;
32826;SDS011;51059;42.058;27.986;2024-03-22T08:23:07;11.93;;;7.63;;
32826;SDS011;51059;42.058;27.986;2024-03-22T08:25:33;10.77;;;7.67;;
32826;SDS011;51059;42.058;27.986;2024-03-22T08:27:59;9.10;;;7.07;;
32826;SDS011;51059;42.058;27.986;2024-03-22T08:30:24;8.47;;;7.30;;
32826;SDS011;51059;42.058;27.986;2024-03-22T08:32:51;8.80;;;7.50;;
32826;SDS011;51059;42.058;27.986;2024-03-22T08:35:17;15.00;;;12.10;;
32826;SDS011;51059;42.058;27.986;2024-03-22T08:37:43;10.30;;;7.10;;
32826;SDS011;51059;42.058;27.986;2024-03-22T08:40:10;7.67;;;6.83;;
32826;SDS011;51059;42.058;27.986;2024-03-22T08:42:39;8.00;;;6.80;;
32826;SDS011;51059;42.058;27.986;2024-03-22T08:45:05;7.20;;;6.50;;
32826;SDS011;51059;42.058;27.986;2024-03-22T08:47:32;13.93;;;6.60;;
32826;SDS011;51059;42.058;27.986;2024-03-22T08:49:59;11.17;;;6.40;;
32826;SDS011;51059;42.058;27.986;2024-03-22T08:52:26;9.23;;;7.03;;
32826;SDS011;51059;42.058;27.986;2024-03-22T08:54:54;9.53;;;7.40;;
32826;SDS011;51059;42.058;27.986;2024-03-22T08:57:20;8.83;;;7.63;;
32826;SDS011;51059;42.058;27.986;2024-03-22T08:59:47;12.57;;;7.90;;
32826;SDS011;51059;42.058;27.986;2024-03-22T09:02:13;11.37;;;8.20;;
32826;SDS011;51059;42.058;27.986;2024-03-22T09:04:40;10.93;;;8.13;;
32826;SDS011;51059;42.058;27.986;2024-03-22T09:07:06;12.13;;;8.30;;
32826;SDS011;51059;42.058;27.986;2024-03-22T09:09:33;11.73;;;9.00;;
32826;SDS011;51059;42.058;27.986;2024-03-22T09:11:59;10.40;;;9.33;;
32826;SDS011;51059;42.058;27.986;2024-03-22T09:14:25;12.87;;;8.23;;
32826;SDS011;51059;42.058;27.986;2024-03-22T09:16:51;10.30;;;8.13;;
32826;SDS011;51059;42.058;27.986;2024-03-22T09:19:16;12.23;;;8.57;;
32826;SDS011;51059;42.058;27.986;2024-03-22T09:21:42;9.70;;;8.00;;
32826;SDS011;51059;42.058;27.986;2024-03-22T09:24:08;9.00;;;8.07;;
32826;SDS011;51059;42.058;27.986;2024-03-22T09:26:35;10.43;;;8.47;;
32826;SDS011;51059;42.058;27.986;2024-03-22T09:29:01;10.33;;;8.67;;
32826;SDS011;51059;42.058;27.986;2024-03-22T09:31:27;9.40;;;8.20;;
32826;SDS011;51059;42.058;27.986;2024-03-22T09:33:53;10.27;;;8.13;;
32826;SDS011;51059;42.058;27.986;2024-03-22T09:36:19;11.10;;;8.77;;
32826;SDS011;51059;42.058;27.986;2024-03-22T09:38:44;15.23;;;8.27;;
32826;SDS011;51059;42.058;27.986;2024-03-22T09:41:10;10.40;;;8.67;;
32826;SDS011;51059;42.058;27.986;2024-03-22T09:43:38;9.70;;;8.10;;
32826;SDS011;51059;42.058;27.986;2024-03-22T09:46:12;14.17;;;7.93;;
32826;SDS011;51059;42.058;27.986;2024-03-22T09:48:39;9.10;;;8.10;;
32826;SDS011;51059;42.058;27.986;2024-03-22T09:51:06;9.07;;;8.00;;
32826;SDS011;51059;42.058;27.986;2024-03-22T09:53:33;9.33;;;7.43;;
32826;SDS011;51059;42.058;27.986;2024-03-22T09:56:01;11.53;;;8.07;;
32826;SDS011;51059;42.058;27.986;2024-03-22T09:58:27;13.73;;;8.60;;
32826;SDS011;51059;42.058;27.986;2024-03-22T10:00:53;7.80;;;7.10;;
32826;SDS011;51059;42.058;27.986;2024-03-22T10:03:27;8.90;;;8.00;;
32826;SDS011;51059;42.058;27.986;2024-03-22T10:05:53;9.07;;;7.97;;
32826;SDS011;51059;42.058;27.986;2024-03-22T10:08:19;8.93;;;7.73;;
32826;SDS011;51059;42.058;27.986;2024-03-22T10:10:45;11.17;;;7.27;;
32826;SDS011;51059;42.058;27.986;2024-03-22T10:13:11;8.33;;;7.20;;
32826;SDS011;51059;42.058;27.986;2024-03-22T10:15:37;8.50;;;7.70;;
32826;SDS011;51059;42.058;27.986;2024-03-22T10:18:03;8.37;;;7.57;;
32826;SDS011;51059;42.058;27.986;2024-03-22T10:20:29;7.53;;;6.73;;
32826;SDS011;51059;42.058;27.986;2024-03-22T10:22:55;7.97;;;6.63;;
32826;SDS011;51059;42.058;27.986;2024-03-22T10:25:24;12.80;;;7.17;;
32826;SDS011;51059;42.058;27.986;2024-03-22T10:27:56;8.40;;;6.70;;
32826;SDS011;51059;42.058;27.986;2024-03-22T10:30:24;7.43;;;6.63;;
32826;SDS011;51059;42.058;27.986;2024-03-22T10:32:50;7.83;;;7.03;;
32826;SDS011;51059;42.058;27.986;2024-03-22T10:35:16;7.13;;;6.13;;
32826;SDS011;51059;42.058;27.986;2024-03-22T10:37:43;6.67;;;6.07;;
32826;SDS011;51059;42.058;27.986;2024-03-22T10:40:10;7.63;;;6.83;;
32826;SDS011;51059;42.058;27.986;2024-03-22T10:42:41;8.37;;;6.43;;
32826;SDS011;51059;42.058;27.986;2024-03-22T10:45:09;7.43;;;6.37;;
32826;SDS011;51059;42.058;27.986;2024-03-22T10:47:36;7.07;;;6.37;;
32826;SDS011;51059;42.058;27.986;2024-03-22T10:50:07;7.73;;;6.00;;
32826;SDS011;51059;42.058;27.986;2024-03-22T10:55:28;7.37;;;6.67;;
32826;SDS011;51059;42.058;27.986;2024-03-22T10:57:57;8.60;;;6.50;;
32826;SDS011;51059;42.058;27.986;2024-03-22T11:00:28;7.33;;;6.30;;
32826;SDS011;51059;42.058;27.986;2024-03-22T11:02:55;7.20;;;6.50;;
32826;SDS011;51059;42.058;27.986;2024-03-22T11:05:21;7.43;;;5.97;;
32826;SDS011;51059;42.058;27.986;2024-03-22T11:07:57;7.80;;;6.93;;
32826;SDS011;51059;42.058;27.986;2024-03-22T11:10:30;8.10;;;7.07;;
32826;SDS011;51059;42.058;27.986;2024-03-22T11:13:06;8.87;;;7.97;;
32826;SDS011;51059;42.058;27.986;2024-03-22T11:15:34;8.47;;;7.57;;
32826;SDS011;51059;42.058;27.986;2024-03-22T11:18:00;8.73;;;7.53;;
32826;SDS011;51059;42.058;27.986;2024-03-22T11:20:29;9.67;;;7.43;;
32826;SDS011;51059;42.058;27.986;2024-03-22T11:22:57;10.33;;;7.47;;
32826;SDS011;51059;42.058;27.986;2024-03-22T11:25:23;8.10;;;7.30;;
32826;SDS011;51059;42.058;27.986;2024-03-22T11:27:49;7.80;;;7.00;;
32826;SDS011;51059;42.058;27.986;2024-03-22T11:30:18;9.40;;;7.33;;
32826;SDS011;51059;42.058;27.986;2024-03-22T11:32:45;7.67;;;6.97;;
32826;SDS011;51059;42.058;27.986;2024-03-22T11:35:11;10.00;;;7.70;;
32826;SDS011;51059;42.058;27.986;2024-03-22T11:37:39;7.03;;;6.33;;
32826;SDS011;51059;42.058;27.986;2024-03-22T11:40:08;7.97;;;7.13;;
32826;SDS011;51059;42.058;27.986;2024-03-22T11:42:39;7.63;;;6.90;;
32826;SDS011;51059;42.058;27.986;2024-03-22T11:45:09;9.47;;;6.77;;
32826;SDS011;51059;42.058;27.986;2024-03-22T11:47:36;8.07;;;6.90;;
32826;SDS011;51059;42.058;27.986;2024-03-22T11:50:03;7.63;;;6.93;;
32826;SDS011;51059;42.058;27.986;2024-03-22T11:52:29;7.90;;;7.20;;
32826;SDS011;51059;42.058;27.986;2024-03-22T11:54:56;7.63;;;6.83;;
32826;SDS011;51059;42.058;27.986;2024-03-22T11:57:23;6.73;;;6.17;;
32826;SDS011;51059;42.058;27.986;2024-03-22T11:59:49;8.43;;;6.93;;
32826;SDS011;51059;42.058;27.986;2024-03-22T12:02:16;8.27;;;7.10;;
32826;SDS011;51059;42.058;27.986;2024-03-22T12:04:45;7.73;;;6.63;;
32826;SDS011;51059;42.058;27.986;2024-03-22T12:07:15;7.17;;;6.47;;
32826;SDS011;51059;42.058;27.986;2024-03-22T12:09:43;7.63;;;6.57;;
32826;SDS011;51059;42.058;27.986;2024-03-22T12:12:11;9.70;;;6.80;;
32826;SDS011;51059;42.058;27.986;2024-03-22T12:14:38;7.93;;;6.50;;
32826;SDS011;51059;42.058;27.986;2024-03-22T12:17:08;8.23;;;7.10;;
32826;SDS011;51059;42.058;27.986;2024-03-22T12:19:34;8.10;;;6.37;;
32826;SDS011;51059;42.058;27.986;2024-03-22T12:22:00;8.50;;;6.90;;
32826;SDS011;51059;42.058;27.986;2024-03-22T12:24:26;7.67;;;6.90;;
32826;SDS011;51059;42.058;27.986;2024-03-22T12:26:54;7.50;;;6.73;;
32826;SDS011;51059;42.058;27.986;2024-03-22T12:29:20;7.67;;;6.97;;
32826;SDS011;51059;42.058;27.986;2024-03-22T12:31:46;8.20;;;7.40;;
32826;SDS011;51059;42.058;27.986;2024-03-22T12:34:13;8.80;;;8.00;;
32826;SDS011;51059;42.058;27.986;2024-03-22T12:36:40;11.33;;;7.40;;
32826;SDS011;51059;42.058;27.986;2024-03-22T12:39:06;8.03;;;7.23;;
32826;SDS011;51059;42.058;27.986;2024-03-22T12:41:32;8.03;;;7.23;;
32826;SDS011;51059;42.058;27.986;2024-03-22T12:43:59;8.37;;;7.07;;
32826;SDS011;51059;42.058;27.986;2024-03-22T12:46:25;11.53;;;8.27;;
32826;SDS011;51059;42.058;27.986;2024-03-22T12:48:51;13.10;;;6.60;;
32826;SDS011;51059;42.058;27.986;2024-03-22T12:51:17;7.33;;;6.63;;
32826;SDS011;51059;42.058;27.986;2024-03-22T12:53:43;7.13;;;6.43;;
32826;SDS011;51059;42.058;27.986;2024-03-22T12:56:08;7.47;;;6.77;;
32826;SDS011;51059;42.058;27.986;2024-03-22T12:58:34;7.73;;;6.17;;
32826;SDS011;51059;42.058;27.986;2024-03-22T13:01:00;6.87;;;6.27;;
32826;SDS011;51059;42.058;27.986;2024-03-22T13:03:27;8.03;;;6.60;;
32826;SDS011;51059;42.058;27.986;2024-03-22T13:05:53;7.40;;;6.57;;
32826;SDS011;51059;42.058;27.986;2024-03-22T13:08:20;7.33;;;6.63;;
32826;SDS011;51059;42.058;27.986;2024-03-22T13:10:48;6.67;;;6.07;;
32826;SDS011;51059;42.058;27.986;2024-03-22T13:13:14;6.70;;;6.10;;
32826;SDS011;51059;42.058;27.986;2024-03-22T13:15:41;7.43;;;6.00;;
32826;SDS011;51059;42.058;27.986;2024-03-22T13:18:09;9.00;;;6.40;;
32826;SDS011;51059;42.058;27.986;2024-03-22T13:20:35;8.40;;;6.03;;
32826;SDS011;51059;42.058;27.986;2024-03-22T13:23:01;6.67;;;6.07;;
32826;SDS011;51059;42.058;27.986;2024-03-22T13:25:27;7.83;;;5.93;;
32826;SDS011;51059;42.058;27.986;2024-03-22T13:27:54;8.97;;;6.87;;
32826;SDS011;51059;42.058;27.986;2024-03-22T13:30:21;6.60;;;6.00;;
32826;SDS011;51059;42.058;27.986;2024-03-22T13:32:48;6.90;;;6.20;;
32826;SDS011;51059;42.058;27.986;2024-03-22T13:35:15;6.23;;;5.73;;
32826;SDS011;51059;42.058;27.986;2024-03-22T13:37:41;6.00;;;5.40;;
32826;SDS011;51059;42.058;27.986;2024-03-22T13:40:07;6.53;;;5.93;;
32826;SDS011;51059;42.058;27.986;2024-03-22T13:42:34;7.73;;;5.87;;
32826;SDS011;51059;42.058;27.986;2024-03-22T13:45:00;5.80;;;5.30;;
32826;SDS011;51059;42.058;27.986;2024-03-22T13:47:27;7.83;;;6.23;;
32826;SDS011;51059;42.058;27.986;2024-03-22T13:49:56;6.80;;;6.10;;
32826;SDS011;51059;42.058;27.986;2024-03-22T13:52:21;9.10;;;6.33;;
32826;SDS011;51059;42.058;27.986;2024-03-22T13:54:48;7.40;;;6.57;;
32826;SDS011;51059;42.058;27.986;2024-03-22T13:57:15;7.57;;;6.80;;
32826;SDS011;51059;42.058;27.986;2024-03-22T13:59:41;6.90;;;6.30;;
32826;SDS011;51059;42.058;27.986;2024-03-22T14:02:07;7.80;;;7.00;;
32826;SDS011;51059;42.058;27.986;2024-03-22T14:04:36;7.13;;;6.47;;
32826;SDS011;51059;42.058;27.986;2024-03-22T14:07:03;7.27;;;6.57;;
32826;SDS011;51059;42.058;27.986;2024-03-22T14:09:33;8.50;;;7.03;;
32826;SDS011;51059;42.058;27.986;2024-03-22T14:11:59;6.80;;;6.17;;
32826;SDS011;51059;42.058;27.986;2024-03-22T14:14:26;7.67;;;6.97;;
32826;SDS011;51059;42.058;27.986;2024-03-22T14:16:53;6.80;;;6.07;;
32826;SDS011;51059;42.058;27.986;2024-03-22T14:19:19;7.50;;;6.70;;
32826;SDS011;51059;42.058;27.986;2024-03-22T14:21:45;9.57;;;8.00;;
32826;SDS011;51059;42.058;27.986;2024-03-22T14:24:12;8.43;;;7.50;;
32826;SDS011;51059;42.058;27.986;2024-03-22T14:26:40;7.67;;;6.97;;
32826;SDS011;51059;42.058;27.986;2024-03-22T14:29:10;8.87;;;8.00;;